createdAt,value
2023-01-31T00:00:25.953Z,1.67
2023-01-31T00:02:52.230Z,1.64
2023-01-31T00:05:18.792Z,1.61
2023-01-31T00:07:45.246Z,1.60
2023-01-31T00:10:11.523Z,1.61
2023-01-31T00:12:37.783Z,1.63
2023-01-31T00:15:04.047Z,1.60
2023-01-31T00:17:30.297Z,1.61
2023-01-31T00:19:56.647Z,1.64
2023-01-31T00:22:22.904Z,1.62
2023-01-31T00:24:49.177Z,1.60
2023-01-31T00:27:15.478Z,1.58
2023-01-31T00:29:41.737Z,1.51
2023-01-31T00:32:08.097Z,1.43
2023-01-31T00:34:34.768Z,1.43
2023-01-31T00:37:01.061Z,1.33
2023-01-31T00:39:27.321Z,1.24
2023-01-31T00:41:53.586Z,1.22
2023-01-31T00:44:19.870Z,1.27
2023-01-31T00:46:46.149Z,1.24
2023-01-31T00:49:12.460Z,1.25
2023-01-31T00:51:38.724Z,1.22
2023-01-31T00:54:04.986Z,1.09
2023-01-31T00:56:31.245Z,1.07
2023-01-31T00:58:57.541Z,0.99
2023-01-31T01:01:23.823Z,0.98
2023-01-31T01:03:50.103Z,0.89
2023-01-31T01:06:16.401Z,0.93
2023-01-31T01:08:42.675Z,0.93
2023-01-31T01:11:08.972Z,0.84
2023-01-31T01:13:35.347Z,0.86
2023-01-31T01:16:01.700Z,0.85
2023-01-31T01:18:27.983Z,0.87
2023-01-31T01:20:54.290Z,0.93
2023-01-31T01:23:20.600Z,0.95
2023-01-31T01:25:46.876Z,0.93
2023-01-31T01:28:13.172Z,1.04
2023-01-31T01:30:39.421Z,1.05
2023-01-31T01:33:05.668Z,1.04
2023-01-31T01:35:32.126Z,1.07
2023-01-31T01:37:58.373Z,1.07
2023-01-31T01:40:24.652Z,1.04
2023-01-31T01:42:50.905Z,1.04
2023-01-31T01:45:18.819Z,0.97
2023-01-31T01:47:46.374Z,0.98
2023-01-31T01:50:12.636Z,1.04
2023-01-31T01:52:38.879Z,1.06
2023-01-31T01:55:05.152Z,1.09
2023-01-31T01:57:31.410Z,1.19
2023-01-31T01:59:57.656Z,1.27
2023-01-31T02:02:23.911Z,1.33
2023-01-31T02:04:50.199Z,1.31
2023-01-31T02:07:16.572Z,1.35
2023-01-31T02:09:42.823Z,1.36
2023-01-31T02:12:09.085Z,1.24
2023-01-31T02:14:35.992Z,1.28
2023-01-31T02:17:02.334Z,1.29
2023-01-31T02:19:28.896Z,1.24
2023-01-31T02:21:55.222Z,1.27
2023-01-31T02:24:21.537Z,1.33
2023-01-31T02:26:47.842Z,1.40
2023-01-31T02:29:14.148Z,1.43
2023-01-31T02:31:40.489Z,1.48
2023-01-31T02:34:06.758Z,1.55
2023-01-31T02:36:33.008Z,1.57
2023-01-31T02:38:59.265Z,1.58
2023-01-31T02:41:25.498Z,1.63
2023-01-31T02:43:51.753Z,1.70
2023-01-31T02:46:18.037Z,1.81
2023-01-31T02:48:44.352Z,1.87
2023-01-31T02:51:10.600Z,1.84
2023-01-31T02:53:36.852Z,1.83
2023-01-31T02:56:03.101Z,1.88
2023-01-31T02:58:29.366Z,1.92
2023-01-31T03:00:55.631Z,1.82
2023-01-31T03:03:21.929Z,1.76
2023-01-31T03:05:48.188Z,1.70
2023-01-31T03:08:14.488Z,1.70
2023-01-31T03:10:40.746Z,1.66
2023-01-31T03:13:07.019Z,1.63
2023-01-31T03:15:33.282Z,1.61
2023-01-31T03:17:59.560Z,1.57
2023-01-31T03:20:25.836Z,1.48
2023-01-31T03:22:52.096Z,1.46
2023-01-31T03:25:18.878Z,1.38
2023-01-31T03:27:45.857Z,1.36
2023-01-31T03:30:12.111Z,1.28
2023-01-31T03:32:38.377Z,1.27
2023-01-31T03:35:04.681Z,1.23
2023-01-31T03:37:30.914Z,1.21
2023-01-31T03:39:57.186Z,1.10
2023-01-31T03:42:23.447Z,1.06
2023-01-31T03:44:49.711Z,1.07
2023-01-31T03:47:15.975Z,1.01
2023-01-31T03:49:42.231Z,1.02
2023-01-31T03:52:08.493Z,1.07
2023-01-31T03:54:34.764Z,1.08
2023-01-31T03:57:01.036Z,1.11
2023-01-31T03:59:27.380Z,1.10
2023-01-31T04:01:53.675Z,1.12
2023-01-31T04:04:19.957Z,1.19
2023-01-31T04:06:46.379Z,1.23
2023-01-31T04:09:12.990Z,1.27
2023-01-31T04:11:39.284Z,1.32
2023-01-31T04:14:05.604Z,1.34
2023-01-31T04:16:32.191Z,1.40
2023-01-31T04:18:58.437Z,1.41
2023-01-31T04:21:24.693Z,1.40
2023-01-31T04:23:50.964Z,1.38
2023-01-31T04:26:17.268Z,1.40
2023-01-31T04:28:43.551Z,1.41
2023-01-31T04:31:09.866Z,1.41
2023-01-31T04:33:36.678Z,1.43
2023-01-31T04:36:02.949Z,1.44
2023-01-31T04:38:29.249Z,1.44
2023-01-31T04:40:55.501Z,1.46
2023-01-31T04:43:21.746Z,1.43
2023-01-31T04:45:48.020Z,1.42
2023-01-31T04:48:14.283Z,1.41
2023-01-31T04:50:40.556Z,1.42
2023-01-31T04:53:07.184Z,1.42
2023-01-31T04:55:33.439Z,1.46
2023-01-31T04:57:59.694Z,1.46
2023-01-31T05:00:25.961Z,1.50
2023-01-31T05:02:52.277Z,1.54
2023-01-31T05:05:18.719Z,1.50
2023-01-31T05:07:45.104Z,1.40
2023-01-31T05:10:11.374Z,1.35
2023-01-31T05:12:37.621Z,1.27
2023-01-31T05:15:03.872Z,1.24
2023-01-31T05:17:30.132Z,1.23
2023-01-31T05:19:56.409Z,1.21
2023-01-31T05:22:22.685Z,1.23
2023-01-31T05:24:48.966Z,1.24
2023-01-31T05:27:15.221Z,1.22
2023-01-31T05:29:41.508Z,1.22
2023-01-31T05:32:07.821Z,1.21
2023-01-31T05:34:34.133Z,1.23
2023-01-31T05:37:00.431Z,1.21
2023-01-31T05:39:26.735Z,1.20
2023-01-31T05:41:53.023Z,1.17
2023-01-31T05:44:19.288Z,1.17
2023-01-31T05:46:45.534Z,1.13
2023-01-31T05:49:11.777Z,1.10
2023-01-31T05:51:38.066Z,1.06
2023-01-31T05:54:04.338Z,1.02
2023-01-31T05:56:30.960Z,1.00
2023-01-31T05:58:57.256Z,0.99
2023-01-31T06:01:23.528Z,0.95
2023-01-31T06:03:49.822Z,0.93
2023-01-31T06:06:16.119Z,0.93
2023-01-31T06:08:42.401Z,0.89
2023-01-31T06:11:08.696Z,0.89
2023-01-31T06:13:34.976Z,0.80
2023-01-31T06:16:01.231Z,0.74
2023-01-31T06:18:27.483Z,0.72
2023-01-31T06:20:53.732Z,0.75
2023-01-31T06:23:20.004Z,0.75
2023-01-31T06:25:46.267Z,0.75
2023-01-31T06:28:12.654Z,0.71
2023-01-31T06:30:39.019Z,0.66
2023-01-31T06:33:05.308Z,0.64
2023-01-31T06:35:31.744Z,0.58
2023-01-31T06:37:58.205Z,0.53
2023-01-31T06:40:24.491Z,0.49
2023-01-31T06:42:50.765Z,0.48
2023-01-31T06:45:17.052Z,0.47
2023-01-31T06:47:43.308Z,0.52
2023-01-31T06:50:09.608Z,0.48
2023-01-31T06:52:36.037Z,0.48
2023-01-31T06:55:02.336Z,0.45
2023-01-31T06:57:28.624Z,0.52
2023-01-31T06:59:54.895Z,0.54
2023-01-31T07:02:21.165Z,0.49
2023-01-31T07:04:47.489Z,0.54
2023-01-31T07:07:13.789Z,0.56
2023-01-31T07:09:40.056Z,0.51
2023-01-31T07:12:06.321Z,0.52
2023-01-31T07:14:32.573Z,0.59
2023-01-31T07:16:58.845Z,0.63
2023-01-31T07:19:25.125Z,0.65
2023-01-31T07:21:51.387Z,0.67
2023-01-31T07:24:17.664Z,0.71
2023-01-31T07:26:44.040Z,0.68
2023-01-31T07:29:10.360Z,0.66
2023-01-31T07:31:36.666Z,0.67
2023-01-31T07:34:02.946Z,0.64
2023-01-31T07:36:29.864Z,0.66
2023-01-31T07:38:56.208Z,0.65
2023-01-31T07:41:22.452Z,0.65
2023-01-31T07:43:49.095Z,0.66
2023-01-31T07:46:15.445Z,0.68
2023-01-31T07:48:41.735Z,0.68
2023-01-31T07:51:07.997Z,0.66
2023-01-31T07:53:34.348Z,0.67
2023-01-31T07:56:00.614Z,0.66
2023-01-31T07:58:26.899Z,0.71
2023-01-31T08:00:53.164Z,0.75
2023-01-31T08:03:19.458Z,0.77
2023-01-31T08:05:45.723Z,0.78
2023-01-31T08:08:12.003Z,0.79
2023-01-31T08:10:38.278Z,0.77
2023-01-31T08:13:04.574Z,0.76
2023-01-31T08:15:30.845Z,0.74
2023-01-31T08:17:57.100Z,0.79
2023-01-31T08:20:23.379Z,0.75
2023-01-31T08:22:49.641Z,0.75
2023-01-31T08:25:15.925Z,0.78
2023-01-31T08:27:42.232Z,0.79
2023-01-31T08:30:08.508Z,0.80
2023-01-31T08:32:34.794Z,0.85
2023-01-31T08:35:01.077Z,0.86
2023-01-31T08:37:27.352Z,0.87
2023-01-31T08:39:53.676Z,0.95
2023-01-31T08:42:19.993Z,0.97
2023-01-31T08:44:46.290Z,0.99
2023-01-31T08:47:12.565Z,1.02
2023-01-31T08:49:38.865Z,1.11
2023-01-31T08:52:05.153Z,1.17
2023-01-31T08:54:31.419Z,1.24
2023-01-31T08:56:57.681Z,1.28
2023-01-31T08:59:23.945Z,1.35
2023-01-31T09:01:50.227Z,1.40
2023-01-31T09:04:16.552Z,1.33
2023-01-31T09:06:42.856Z,1.34
2023-01-31T09:09:09.151Z,1.39
2023-01-31T09:11:35.408Z,1.40
2023-01-31T09:14:01.659Z,1.47
2023-01-31T09:16:27.989Z,1.55
2023-01-31T09:18:54.360Z,1.65
2023-01-31T09:21:20.654Z,1.78
2023-01-31T09:23:46.934Z,1.87
2023-01-31T09:26:13.319Z,1.95
2023-01-31T09:28:39.629Z,2.00
2023-01-31T09:31:06.053Z,2.05
2023-01-31T09:33:32.411Z,2.15
2023-01-31T09:35:58.673Z,2.26
2023-01-31T09:38:24.945Z,2.29
2023-01-31T09:40:51.197Z,2.38
2023-01-31T09:43:17.460Z,2.46
2023-01-31T09:45:43.766Z,2.51
2023-01-31T09:48:10.011Z,2.60
2023-01-31T09:50:36.666Z,2.72
2023-01-31T09:53:02.986Z,2.81
2023-01-31T09:55:29.553Z,2.97
2023-01-31T09:57:55.838Z,3.03
2023-01-31T10:00:22.310Z,2.96
2023-01-31T10:02:48.685Z,2.93
2023-01-31T10:05:14.954Z,3.02
2023-01-31T10:07:41.253Z,3.20
2023-01-31T10:10:07.524Z,3.34
2023-01-31T10:12:33.812Z,3.45
2023-01-31T10:15:00.146Z,3.43
2023-01-31T10:17:26.428Z,3.56
2023-01-31T10:19:52.713Z,3.69
2023-01-31T10:22:18.995Z,3.74
2023-01-31T10:24:45.268Z,3.79
2023-01-31T10:27:11.526Z,3.84
2023-01-31T10:29:37.810Z,3.82
2023-01-31T10:32:04.107Z,3.96
2023-01-31T10:34:30.463Z,3.97
2023-01-31T10:36:56.734Z,4.11
2023-01-31T10:39:22.987Z,4.19
2023-01-31T10:41:49.247Z,4.27
2023-01-31T10:44:15.521Z,4.18
2023-01-31T10:46:42.905Z,4.33
2023-01-31T10:49:09.153Z,4.17
2023-01-31T10:51:35.415Z,4.19
2023-01-31T10:54:01.698Z,4.16
2023-01-31T10:56:27.965Z,3.87
2023-01-31T10:58:54.212Z,3.97
2023-01-31T11:01:20.549Z,3.78
2023-01-31T11:03:46.879Z,3.69
2023-01-31T11:06:13.168Z,3.73
2023-01-31T11:08:39.433Z,3.67
2023-01-31T11:11:05.728Z,3.68
2023-01-31T11:13:32.004Z,3.69
2023-01-31T11:15:58.399Z,3.68
2023-01-31T11:18:24.652Z,3.63
2023-01-31T11:20:50.913Z,3.75
2023-01-31T11:23:17.206Z,3.94
2023-01-31T11:25:43.476Z,3.93
2023-01-31T11:28:09.747Z,4.01
2023-01-31T11:30:36.053Z,4.09
2023-01-31T11:33:02.334Z,4.04
2023-01-31T11:35:28.598Z,4.08
2023-01-31T11:37:54.875Z,4.02
2023-01-31T11:40:21.542Z,4.04
2023-01-31T11:42:47.975Z,4.12
2023-01-31T11:45:14.227Z,4.22
2023-01-31T11:47:40.532Z,4.35
2023-01-31T11:50:06.819Z,4.40
2023-01-31T11:52:33.088Z,4.27
2023-01-31T11:54:59.353Z,4.16
2023-01-31T11:57:25.678Z,4.17
2023-01-31T11:59:51.966Z,4.17
2023-01-31T12:02:18.264Z,4.29
2023-01-31T12:04:44.546Z,4.38
2023-01-31T12:07:10.797Z,4.44
2023-01-31T12:09:37.056Z,4.61
2023-01-31T12:12:04.363Z,4.65
2023-01-31T12:14:31.588Z,4.60
2023-01-31T12:16:57.883Z,4.70
2023-01-31T12:19:24.205Z,4.71
2023-01-31T12:21:50.458Z,4.78
2023-01-31T12:24:16.722Z,4.85
2023-01-31T12:26:43.064Z,4.95
2023-01-31T12:29:10.919Z,4.98
2023-01-31T12:31:38.268Z,4.98
2023-01-31T12:34:04.546Z,5.00
2023-01-31T12:36:30.840Z,5.10
2023-01-31T12:38:57.102Z,5.07
2023-01-31T12:41:23.372Z,5.01
2023-01-31T12:43:49.641Z,5.05
2023-01-31T12:46:15.985Z,5.26
2023-01-31T12:48:42.284Z,5.41
2023-01-31T12:51:08.543Z,5.56
2023-01-31T12:53:34.809Z,5.66
2023-01-31T12:56:01.070Z,5.75
2023-01-31T12:58:27.359Z,5.85
2023-01-31T13:00:53.621Z,5.95
2023-01-31T13:03:19.889Z,5.99
2023-01-31T13:05:46.140Z,6.16
2023-01-31T13:08:13.140Z,6.21
2023-01-31T13:10:40.577Z,6.14
2023-01-31T13:13:06.860Z,6.24
2023-01-31T13:15:33.129Z,6.28
2023-01-31T13:17:59.417Z,6.38
2023-01-31T13:20:25.715Z,6.40
2023-01-31T13:22:51.958Z,6.53
2023-01-31T13:25:18.358Z,6.61
2023-01-31T13:27:44.740Z,6.74
2023-01-31T13:30:10.990Z,6.84
2023-01-31T13:32:37.299Z,6.90
2023-01-31T13:35:03.553Z,6.93
2023-01-31T13:37:29.790Z,7.06
2023-01-31T13:39:56.047Z,7.22
2023-01-31T13:42:22.330Z,7.23
2023-01-31T13:44:48.632Z,7.13
2023-01-31T13:47:14.906Z,7.31
2023-01-31T13:49:41.175Z,7.39
2023-01-31T13:52:07.521Z,7.47
2023-01-31T13:54:33.753Z,7.42
2023-01-31T13:57:00.009Z,7.50
2023-01-31T13:59:26.265Z,7.59
2023-01-31T14:01:52.683Z,7.60
2023-01-31T14:04:19.017Z,7.72
2023-01-31T14:06:45.271Z,7.78
2023-01-31T14:09:11.541Z,7.78
2023-01-31T14:11:37.808Z,7.79
2023-01-31T14:14:04.095Z,7.72
2023-01-31T14:16:30.388Z,7.67
2023-01-31T14:18:56.711Z,7.65
2023-01-31T14:21:23.019Z,7.56
2023-01-31T14:23:49.311Z,7.48
2023-01-31T14:26:15.576Z,7.35
2023-01-31T14:28:41.855Z,7.35
2023-01-31T14:31:08.126Z,7.26
2023-01-31T14:33:34.507Z,7.22
2023-01-31T14:36:00.781Z,7.16
2023-01-31T14:38:27.034Z,7.14
2023-01-31T14:40:53.317Z,7.08
2023-01-31T14:43:19.596Z,7.02
2023-01-31T14:45:45.936Z,7.02
2023-01-31T14:48:12.245Z,6.88
2023-01-31T14:50:38.509Z,6.86
2023-01-31T14:53:04.785Z,6.94
2023-01-31T14:55:31.047Z,6.86
2023-01-31T14:57:57.304Z,6.85
2023-01-31T15:00:23.563Z,6.80
2023-01-31T15:02:49.893Z,6.70
2023-01-31T15:05:16.310Z,6.63
2023-01-31T15:07:42.581Z,6.66
2023-01-31T15:10:08.848Z,6.65
2023-01-31T15:12:35.097Z,6.65
2023-01-31T15:15:01.368Z,6.61
2023-01-31T15:17:36.468Z,6.62
2023-01-31T15:20:04.012Z,6.55
2023-01-31T15:22:30.353Z,6.51
2023-01-31T15:24:56.718Z,6.44
2023-01-31T15:27:22.985Z,6.37
2023-01-31T15:29:52.052Z,6.32
2023-01-31T15:32:18.349Z,6.33
2023-01-31T15:34:44.632Z,6.28
2023-01-31T15:37:10.920Z,6.17
2023-01-31T15:39:37.203Z,6.11
2023-01-31T15:42:03.454Z,6.12
2023-01-31T15:44:29.753Z,6.12
2023-01-31T15:46:56.040Z,6.09
2023-01-31T15:49:37.731Z,6.05
2023-01-31T15:52:05.139Z,6.00
2023-01-31T15:54:31.405Z,5.95
2023-01-31T15:56:57.703Z,5.95
2023-01-31T15:59:24.004Z,5.82
2023-01-31T16:01:50.272Z,5.79
2023-01-31T16:04:16.543Z,5.75
2023-01-31T16:06:42.798Z,5.72
2023-01-31T16:09:09.079Z,5.68
2023-01-31T16:11:35.339Z,5.67
2023-01-31T16:14:01.613Z,5.68
2023-01-31T16:16:27.943Z,5.59
2023-01-31T16:18:54.223Z,5.62
2023-01-31T16:21:20.501Z,5.59
2023-01-31T16:23:46.785Z,5.58
2023-01-31T16:26:13.155Z,5.58
2023-01-31T16:28:39.476Z,5.59
2023-01-31T16:31:05.850Z,5.58
2023-01-31T16:33:32.193Z,5.52
2023-01-31T16:36:11.871Z,5.47
2023-01-31T16:38:40.114Z,5.46
2023-01-31T16:41:06.385Z,5.50
2023-01-31T16:43:32.719Z,5.52
2023-01-31T16:45:59.080Z,5.52
2023-01-31T16:48:25.400Z,5.53
2023-01-31T16:50:51.662Z,5.46
2023-01-31T16:53:17.935Z,5.42
2023-01-31T16:55:44.210Z,5.41
2023-01-31T16:58:10.466Z,5.37
2023-01-31T17:00:36.744Z,5.35
2023-01-31T17:03:03.084Z,5.31
2023-01-31T17:05:29.372Z,5.28
2023-01-31T17:07:55.637Z,5.26
2023-01-31T17:10:22.240Z,5.26
2023-01-31T17:12:48.699Z,5.25
2023-01-31T17:15:14.989Z,5.24
2023-01-31T17:17:41.278Z,5.22
2023-01-31T17:20:07.553Z,5.19
2023-01-31T17:22:33.834Z,5.13
2023-01-31T17:25:00.127Z,5.02
2023-01-31T17:27:26.451Z,4.92
2023-01-31T17:29:52.777Z,4.90
2023-01-31T17:32:19.065Z,4.88
2023-01-31T17:34:45.344Z,4.91
2023-01-31T17:37:12.980Z,4.89
2023-01-31T17:39:40.549Z,4.90
2023-01-31T17:42:06.819Z,4.93
2023-01-31T17:44:33.091Z,4.95
2023-01-31T17:46:59.917Z,4.97
2023-01-31T17:49:27.330Z,4.98
2023-01-31T17:51:53.852Z,4.95
2023-01-31T17:54:20.155Z,4.94
2023-01-31T17:56:46.406Z,4.87
2023-01-31T17:59:21.789Z,4.83
2023-01-31T18:01:53.163Z,4.83
2023-01-31T18:04:19.481Z,4.82
2023-01-31T18:06:45.751Z,4.83
2023-01-31T18:09:12.018Z,4.82
2023-01-31T18:11:38.272Z,4.82
2023-01-31T18:14:04.553Z,4.83
2023-01-31T18:16:30.884Z,4.80
2023-01-31T18:18:57.207Z,4.82
2023-01-31T18:21:23.494Z,4.84
2023-01-31T18:23:49.793Z,4.79
2023-01-31T18:26:16.071Z,4.77
2023-01-31T18:28:42.388Z,4.75
2023-01-31T18:31:08.698Z,4.72
2023-01-31T18:33:35.005Z,4.72
2023-01-31T18:36:01.344Z,4.71
2023-01-31T18:38:27.627Z,4.71
2023-01-31T18:40:53.891Z,4.70
2023-01-31T18:43:20.180Z,4.69
2023-01-31T18:45:46.481Z,4.69
2023-01-31T18:48:12.761Z,4.68
2023-01-31T18:50:39.018Z,4.67
2023-01-31T18:53:05.264Z,4.66
2023-01-31T18:55:31.535Z,4.67
2023-01-31T18:57:57.814Z,4.67
2023-01-31T19:00:24.095Z,4.65
2023-01-31T19:02:50.379Z,4.63
2023-01-31T19:05:16.663Z,4.62
2023-01-31T19:07:42.971Z,4.63
2023-01-31T19:10:09.249Z,4.65
2023-01-31T19:12:35.516Z,4.65
2023-01-31T19:15:01.862Z,4.67
2023-01-31T19:17:28.133Z,4.64
2023-01-31T19:19:54.393Z,4.65
2023-01-31T19:22:20.698Z,4.65
2023-01-31T19:24:46.994Z,4.66
2023-01-31T19:27:13.297Z,4.64
2023-01-31T19:29:39.930Z,4.64
2023-01-31T19:32:06.266Z,4.63
2023-01-31T19:34:32.531Z,4.57
2023-01-31T19:36:58.805Z,4.58
2023-01-31T19:39:25.086Z,4.55
2023-01-31T19:41:51.376Z,4.51
2023-01-31T19:44:17.648Z,4.49
2023-01-31T19:46:44.021Z,4.41
2023-01-31T19:49:10.431Z,4.29
2023-01-31T19:51:36.701Z,4.29
2023-01-31T19:54:03.012Z,4.27
2023-01-31T19:56:29.335Z,4.26
2023-01-31T19:58:55.614Z,4.28
2023-01-31T20:01:21.909Z,4.18
2023-01-31T20:03:48.273Z,4.13
2023-01-31T20:06:14.577Z,4.17
2023-01-31T20:08:40.909Z,4.17
2023-01-31T20:11:07.218Z,4.21
2023-01-31T20:13:33.547Z,4.27
2023-01-31T20:15:59.819Z,4.27
2023-01-31T20:18:26.105Z,4.28
2023-01-31T20:20:52.365Z,4.28
2023-01-31T20:23:18.651Z,4.30
2023-01-31T20:25:44.917Z,4.29
2023-01-31T20:28:11.203Z,4.32
2023-01-31T20:30:37.578Z,4.31
2023-01-31T20:33:03.871Z,4.32
2023-01-31T20:35:30.145Z,4.31
2023-01-31T20:37:56.437Z,4.32
2023-01-31T20:40:23.019Z,4.33
2023-01-31T20:42:49.609Z,4.33
2023-01-31T20:45:16.032Z,4.34
2023-01-31T20:47:42.435Z,4.36
2023-01-31T20:50:08.757Z,4.36
2023-01-31T20:52:35.081Z,4.39
2023-01-31T20:55:01.399Z,4.39
2023-01-31T20:57:27.669Z,4.36
2023-01-31T20:59:53.987Z,4.36
2023-01-31T21:02:20.425Z,4.38
2023-01-31T21:04:46.714Z,4.37
2023-01-31T21:07:13.004Z,4.35
2023-01-31T21:09:39.319Z,4.36
2023-01-31T21:12:05.601Z,4.37
2023-01-31T21:14:31.884Z,4.37
2023-01-31T21:16:58.136Z,4.33
2023-01-31T21:19:24.389Z,4.35
2023-01-31T21:21:50.664Z,4.33
2023-01-31T21:24:16.945Z,4.32
2023-01-31T21:26:43.312Z,4.31
2023-01-31T21:29:09.653Z,4.31
2023-01-31T21:31:36.010Z,4.28
2023-01-31T21:34:02.419Z,4.28
2023-01-31T21:36:28.690Z,4.30
2023-01-31T21:38:54.982Z,4.30
2023-01-31T21:41:21.264Z,4.29
2023-01-31T21:43:47.541Z,4.29
2023-01-31T21:46:13.911Z,4.29
2023-01-31T21:48:40.224Z,4.29
2023-01-31T21:51:06.484Z,4.26
2023-01-31T21:53:32.818Z,4.25
2023-01-31T21:55:59.087Z,4.22
2023-01-31T21:58:25.375Z,4.22
2023-01-31T22:00:51.667Z,4.25
2023-01-31T22:03:17.945Z,4.21
2023-01-31T22:05:44.360Z,4.14
2023-01-31T22:08:10.687Z,4.11
2023-01-31T22:10:36.986Z,4.11
2023-01-31T22:13:03.256Z,4.09
2023-01-31T22:15:29.563Z,4.06
2023-01-31T22:17:55.821Z,3.96
2023-01-31T22:20:22.515Z,3.88
2023-01-31T22:22:48.985Z,3.86
2023-01-31T22:25:15.255Z,3.78
2023-01-31T22:27:41.551Z,3.79
2023-01-31T22:30:16.189Z,3.79
2023-01-31T22:32:54.068Z,3.76
2023-01-31T22:35:20.367Z,3.74
2023-01-31T22:37:46.633Z,3.73
2023-01-31T22:40:12.905Z,3.69
2023-01-31T22:42:39.179Z,3.62
2023-01-31T22:45:05.459Z,3.59
2023-01-31T22:47:31.737Z,3.59
2023-01-31T22:49:58.051Z,3.61
2023-01-31T22:52:24.321Z,3.58
2023-01-31T22:54:50.591Z,3.56
2023-01-31T22:57:16.874Z,3.55
2023-01-31T22:59:43.148Z,3.53
2023-01-31T23:02:09.456Z,3.52
2023-01-31T23:04:35.790Z,3.52
2023-01-31T23:07:02.168Z,3.48
2023-01-31T23:09:28.446Z,3.44
2023-01-31T23:11:54.751Z,3.43
2023-01-31T23:14:21.027Z,3.42
2023-01-31T23:16:47.368Z,3.40
2023-01-31T23:19:13.663Z,3.35
2023-01-31T23:21:39.996Z,3.34
2023-01-31T23:24:06.271Z,3.31
2023-01-31T23:26:32.596Z,3.28
2023-01-31T23:28:58.897Z,3.23
2023-01-31T23:31:25.305Z,3.18
2023-01-31T23:33:51.707Z,3.13
2023-01-31T23:36:17.964Z,3.06
2023-01-31T23:38:44.296Z,3.07
2023-01-31T23:41:10.561Z,3.01
2023-01-31T23:43:36.820Z,2.97
2023-01-31T23:46:03.133Z,2.93
2023-01-31T23:48:29.500Z,2.89
2023-01-31T23:50:55.786Z,2.88
2023-01-31T23:53:22.060Z,2.82
2023-01-31T23:55:48.337Z,2.80
2023-01-31T23:58:14.632Z,2.81
